sensor_id;sensor_type;location;lat;lon;timestamp;P1;durP1;ratioP1;P2;durP2;ratioP2
359;SDS011;168;48.872;9.226;2023-05-10T00:00:25;2.10;;;2.00;;
359;SDS011;168;48.872;9.226;2023-05-10T00:02:52;1.60;;;1.50;;
359;SDS011;168;48.872;9.226;2023-05-10T00:05:20;1.53;;;1.43;;
359;SDS011;168;48.872;9.226;2023-05-10T00:07:47;1.43;;;1.33;;
359;SDS011;168;48.872;9.226;2023-05-10T00:10:14;0.77;;;0.77;;
359;SDS011;168;48.872;9.226;2023-05-10T00:12:42;0.60;;;0.60;;
359;SDS011;168;48.872;9.226;2023-05-10T00:15:09;0.50;;;0.50;;
359;SDS011;168;48.872;9.226;2023-05-10T00:17:39;0.50;;;0.50;;
359;SDS011;168;48.872;9.226;2023-05-10T00:20:06;0.50;;;0.50;;
359;SDS011;168;48.872;9.226;2023-05-10T00:22:34;0.93;;;0.90;;
359;SDS011;168;48.872;9.226;2023-05-10T00:25:02;1.03;;;0.50;;
359;SDS011;168;48.872;9.226;2023-05-10T00:27:29;0.50;;;0.40;;
359;SDS011;168;48.872;9.226;2023-05-10T00:29:57;2.30;;;0.50;;
359;SDS011;168;48.872;9.226;2023-05-10T00:32:24;0.40;;;0.33;;
359;SDS011;168;48.872;9.226;2023-05-10T00:34:53;2.23;;;0.50;;
359;SDS011;168;48.872;9.226;2023-05-10T00:37:20;0.40;;;0.40;;
359;SDS011;168;48.872;9.226;2023-05-10T00:39:47;0.40;;;0.40;;
359;SDS011;168;48.872;9.226;2023-05-10T00:42:15;0.40;;;0.40;;
359;SDS011;168;48.872;9.226;2023-05-10T00:44:42;0.53;;;0.50;;
359;SDS011;168;48.872;9.226;2023-05-10T00:47:09;1.17;;;0.70;;
359;SDS011;168;48.872;9.226;2023-05-10T00:49:37;0.50;;;0.50;;
359;SDS011;168;48.872;9.226;2023-05-10T00:52:06;1.03;;;0.40;;
359;SDS011;168;48.872;9.226;2023-05-10T00:54:33;0.60;;;0.60;;
359;SDS011;168;48.872;9.226;2023-05-10T00:57:01;1.33;;;0.60;;
359;SDS011;168;48.872;9.226;2023-05-10T00:59:28;1.10;;;0.60;;
359;SDS011;168;48.872;9.226;2023-05-10T01:01:56;0.70;;;0.70;;
359;SDS011;168;48.872;9.226;2023-05-10T01:04:25;0.90;;;0.70;;
359;SDS011;168;48.872;9.226;2023-05-10T01:06:52;0.67;;;0.67;;
359;SDS011;168;48.872;9.226;2023-05-10T01:09:21;0.80;;;0.80;;
359;SDS011;168;48.872;9.226;2023-05-10T01:11:50;0.50;;;0.50;;
359;SDS011;168;48.872;9.226;2023-05-10T01:14:18;0.50;;;0.50;;
359;SDS011;168;48.872;9.226;2023-05-10T01:16:46;0.50;;;0.50;;
359;SDS011;168;48.872;9.226;2023-05-10T01:19:17;0.70;;;0.70;;
359;SDS011;168;48.872;9.226;2023-05-10T01:21:49;0.70;;;0.70;;
359;SDS011;168;48.872;9.226;2023-05-10T01:27:54;1.07;;;1.07;;
359;SDS011;168;48.872;9.226;2023-05-10T01:30:50;1.27;;;1.23;;
359;SDS011;168;48.872;9.226;2023-05-10T01:33:42;1.27;;;1.17;;
359;SDS011;168;48.872;9.226;2023-05-10T01:36:19;1.27;;;1.27;;
359;SDS011;168;48.872;9.226;2023-05-10T01:38:56;1.73;;;1.63;;
359;SDS011;168;48.872;9.226;2023-05-10T01:41:28;1.80;;;1.70;;
359;SDS011;168;48.872;9.226;2023-05-10T01:44:16;1.57;;;1.37;;
359;SDS011;168;48.872;9.226;2023-05-10T01:46:48;1.63;;;1.53;;
359;SDS011;168;48.872;9.226;2023-05-10T01:49:22;1.63;;;1.53;;
359;SDS011;168;48.872;9.226;2023-05-10T01:51:52;1.67;;;1.57;;
359;SDS011;168;48.872;9.226;2023-05-10T01:54:21;2.10;;;2.00;;
359;SDS011;168;48.872;9.226;2023-05-10T01:56:50;2.20;;;2.00;;
359;SDS011;168;48.872;9.226;2023-05-10T01:59:22;2.10;;;1.90;;
359;SDS011;168;48.872;9.226;2023-05-10T02:01:56;2.10;;;2.00;;
359;SDS011;168;48.872;9.226;2023-05-10T02:04:27;1.37;;;1.37;;
359;SDS011;168;48.872;9.226;2023-05-10T02:06:55;1.93;;;1.83;;
359;SDS011;168;48.872;9.226;2023-05-10T02:09:24;1.67;;;1.57;;
359;SDS011;168;48.872;9.226;2023-05-10T02:11:54;1.80;;;1.70;;
359;SDS011;168;48.872;9.226;2023-05-10T02:14:24;1.73;;;1.63;;
359;SDS011;168;48.872;9.226;2023-05-10T02:16:53;1.87;;;1.70;;
359;SDS011;168;48.872;9.226;2023-05-10T02:19:22;1.80;;;1.70;;
359;SDS011;168;48.872;9.226;2023-05-10T02:21:52;1.73;;;1.63;;
359;SDS011;168;48.872;9.226;2023-05-10T02:24:20;2.07;;;1.87;;
359;SDS011;168;48.872;9.226;2023-05-10T02:26:51;2.63;;;1.80;;
359;SDS011;168;48.872;9.226;2023-05-10T02:29:20;1.83;;;1.73;;
359;SDS011;168;48.872;9.226;2023-05-10T02:31:48;1.60;;;1.47;;
359;SDS011;168;48.872;9.226;2023-05-10T02:34:18;1.80;;;1.70;;
359;SDS011;168;48.872;9.226;2023-05-10T02:36:47;1.90;;;1.80;;
359;SDS011;168;48.872;9.226;2023-05-10T02:39:16;1.70;;;1.60;;
359;SDS011;168;48.872;9.226;2023-05-10T02:41:46;2.10;;;2.00;;
359;SDS011;168;48.872;9.226;2023-05-10T02:44:15;2.33;;;2.13;;
359;SDS011;168;48.872;9.226;2023-05-10T02:46:44;1.70;;;1.60;;
359;SDS011;168;48.872;9.226;2023-05-10T02:49:12;2.40;;;2.00;;
359;SDS011;168;48.872;9.226;2023-05-10T02:51:40;2.90;;;2.20;;
359;SDS011;168;48.872;9.226;2023-05-10T02:54:11;1.63;;;1.53;;
359;SDS011;168;48.872;9.226;2023-05-10T02:56:47;2.07;;;1.90;;
359;SDS011;168;48.872;9.226;2023-05-10T02:59:17;1.60;;;1.50;;
359;SDS011;168;48.872;9.226;2023-05-10T03:01:45;1.73;;;1.60;;
359;SDS011;168;48.872;9.226;2023-05-10T03:04:12;1.70;;;1.60;;
359;SDS011;168;48.872;9.226;2023-05-10T03:06:39;2.37;;;2.13;;
359;SDS011;168;48.872;9.226;2023-05-10T03:09:07;3.07;;;2.17;;
359;SDS011;168;48.872;9.226;2023-05-10T03:11:43;2.17;;;2.07;;
359;SDS011;168;48.872;9.226;2023-05-10T03:14:25;3.03;;;2.27;;
359;SDS011;168;48.872;9.226;2023-05-10T03:17:04;2.30;;;2.10;;
359;SDS011;168;48.872;9.226;2023-05-10T03:19:48;3.10;;;2.90;;
359;SDS011;168;48.872;9.226;2023-05-10T03:22:21;2.20;;;2.10;;
359;SDS011;168;48.872;9.226;2023-05-10T03:24:53;2.40;;;2.30;;
359;SDS011;168;48.872;9.226;2023-05-10T03:27:25;2.23;;;2.03;;
359;SDS011;168;48.872;9.226;2023-05-10T03:29:53;2.33;;;2.13;;
359;SDS011;168;48.872;9.226;2023-05-10T03:32:22;2.20;;;2.10;;
359;SDS011;168;48.872;9.226;2023-05-10T03:34:49;2.40;;;2.23;;
359;SDS011;168;48.872;9.226;2023-05-10T03:37:17;2.43;;;2.23;;
359;SDS011;168;48.872;9.226;2023-05-10T03:39:44;2.77;;;2.57;;
359;SDS011;168;48.872;9.226;2023-05-10T03:42:11;2.00;;;1.90;;
359;SDS011;168;48.872;9.226;2023-05-10T03:44:40;3.10;;;2.30;;
359;SDS011;168;48.872;9.226;2023-05-10T03:47:07;4.20;;;2.93;;
359;SDS011;168;48.872;9.226;2023-05-10T03:49:34;2.53;;;2.43;;
359;SDS011;168;48.872;9.226;2023-05-10T03:52:02;2.77;;;2.57;;
359;SDS011;168;48.872;9.226;2023-05-10T03:54:30;2.53;;;2.43;;
359;SDS011;168;48.872;9.226;2023-05-10T03:56:58;3.10;;;2.90;;
359;SDS011;168;48.872;9.226;2023-05-10T03:59:25;2.37;;;2.27;;
359;SDS011;168;48.872;9.226;2023-05-10T04:01:54;2.60;;;2.43;;
359;SDS011;168;48.872;9.226;2023-05-10T04:04:22;3.30;;;3.10;;
359;SDS011;168;48.872;9.226;2023-05-10T04:06:49;2.67;;;2.57;;
359;SDS011;168;48.872;9.226;2023-05-10T04:09:16;3.17;;;2.97;;
359;SDS011;168;48.872;9.226;2023-05-10T04:11:44;3.10;;;2.90;;
359;SDS011;168;48.872;9.226;2023-05-10T04:14:11;3.10;;;2.90;;
359;SDS011;168;48.872;9.226;2023-05-10T04:16:39;2.67;;;2.53;;
359;SDS011;168;48.872;9.226;2023-05-10T04:19:07;3.37;;;3.07;;
359;SDS011;168;48.872;9.226;2023-05-10T04:21:35;3.10;;;2.90;;
359;SDS011;168;48.872;9.226;2023-05-10T04:24:03;3.00;;;2.80;;
359;SDS011;168;48.872;9.226;2023-05-10T04:26:31;2.97;;;2.77;;
359;SDS011;168;48.872;9.226;2023-05-10T04:28:59;2.80;;;2.60;;
359;SDS011;168;48.872;9.226;2023-05-10T04:31:26;2.97;;;2.70;;
359;SDS011;168;48.872;9.226;2023-05-10T04:33:54;5.37;;;3.10;;
359;SDS011;168;48.872;9.226;2023-05-10T04:36:23;3.17;;;2.97;;
359;SDS011;168;48.872;9.226;2023-05-10T04:38:52;2.87;;;2.67;;
359;SDS011;168;48.872;9.226;2023-05-10T04:41:20;2.57;;;2.37;;
359;SDS011;168;48.872;9.226;2023-05-10T04:43:47;2.30;;;2.20;;
359;SDS011;168;48.872;9.226;2023-05-10T04:46:15;2.60;;;2.50;;
359;SDS011;168;48.872;9.226;2023-05-10T04:48:43;2.10;;;2.00;;
359;SDS011;168;48.872;9.226;2023-05-10T04:51:11;2.20;;;2.10;;
359;SDS011;168;48.872;9.226;2023-05-10T04:53:40;2.70;;;2.50;;
359;SDS011;168;48.872;9.226;2023-05-10T04:56:07;2.40;;;2.30;;
359;SDS011;168;48.872;9.226;2023-05-10T04:58:34;3.33;;;2.23;;
359;SDS011;168;48.872;9.226;2023-05-10T05:01:05;2.20;;;2.10;;
359;SDS011;168;48.872;9.226;2023-05-10T05:03:33;2.73;;;2.53;;
359;SDS011;168;48.872;9.226;2023-05-10T05:06:01;2.70;;;2.50;;
359;SDS011;168;48.872;9.226;2023-05-10T05:08:28;2.57;;;2.47;;
359;SDS011;168;48.872;9.226;2023-05-10T05:11:00;2.70;;;2.50;;
359;SDS011;168;48.872;9.226;2023-05-10T05:13:30;2.83;;;2.27;;
359;SDS011;168;48.872;9.226;2023-05-10T05:16:00;2.90;;;2.40;;
359;SDS011;168;48.872;9.226;2023-05-10T05:18:28;2.17;;;2.07;;
359;SDS011;168;48.872;9.226;2023-05-10T05:20:55;2.50;;;2.30;;
359;SDS011;168;48.872;9.226;2023-05-10T05:23:23;2.73;;;2.53;;
359;SDS011;168;48.872;9.226;2023-05-10T05:25:51;2.17;;;2.07;;
359;SDS011;168;48.872;9.226;2023-05-10T05:28:26;2.80;;;2.60;;
359;SDS011;168;48.872;9.226;2023-05-10T05:31:01;2.13;;;2.03;;
359;SDS011;168;48.872;9.226;2023-05-10T05:33:32;3.23;;;2.93;;
359;SDS011;168;48.872;9.226;2023-05-10T05:36:23;2.30;;;2.20;;
359;SDS011;168;48.872;9.226;2023-05-10T05:38:50;2.57;;;2.30;;
359;SDS011;168;48.872;9.226;2023-05-10T05:41:18;2.70;;;2.53;;
359;SDS011;168;48.872;9.226;2023-05-10T05:43:48;2.90;;;2.70;;
359;SDS011;168;48.872;9.226;2023-05-10T05:46:17;2.60;;;2.50;;
359;SDS011;168;48.872;9.226;2023-05-10T05:52:50;3.10;;;2.80;;
359;SDS011;168;48.872;9.226;2023-05-10T05:55:18;3.10;;;2.30;;
359;SDS011;168;48.872;9.226;2023-05-10T05:57:45;2.93;;;2.73;;
359;SDS011;168;48.872;9.226;2023-05-10T06:00:14;2.97;;;2.80;;
359;SDS011;168;48.872;9.226;2023-05-10T06:02:42;3.30;;;3.10;;
359;SDS011;168;48.872;9.226;2023-05-10T06:05:09;3.50;;;3.20;;
359;SDS011;168;48.872;9.226;2023-05-10T06:07:37;2.90;;;2.70;;
359;SDS011;168;48.872;9.226;2023-05-10T06:10:05;2.90;;;2.70;;
359;SDS011;168;48.872;9.226;2023-05-10T06:12:37;4.50;;;3.17;;
359;SDS011;168;48.872;9.226;2023-05-10T06:15:04;3.10;;;2.90;;
359;SDS011;168;48.872;9.226;2023-05-10T06:17:34;3.70;;;3.00;;
359;SDS011;168;48.872;9.226;2023-05-10T06:20:01;3.07;;;2.87;;
359;SDS011;168;48.872;9.226;2023-05-10T06:22:28;2.93;;;2.73;;
359;SDS011;168;48.872;9.226;2023-05-10T06:24:56;2.87;;;2.67;;
359;SDS011;168;48.872;9.226;2023-05-10T06:27:23;2.60;;;2.50;;
359;SDS011;168;48.872;9.226;2023-05-10T06:29:50;3.03;;;2.60;;
359;SDS011;168;48.872;9.226;2023-05-10T06:32:18;2.77;;;2.57;;
359;SDS011;168;48.872;9.226;2023-05-10T06:34:46;3.63;;;3.33;;
359;SDS011;168;48.872;9.226;2023-05-10T06:37:14;3.40;;;3.10;;
359;SDS011;168;48.872;9.226;2023-05-10T06:39:41;3.43;;;3.13;;
359;SDS011;168;48.872;9.226;2023-05-10T06:42:08;3.07;;;2.87;;
359;SDS011;168;48.872;9.226;2023-05-10T06:44:36;4.17;;;2.70;;
359;SDS011;168;48.872;9.226;2023-05-10T06:47:03;3.70;;;3.47;;
359;SDS011;168;48.872;9.226;2023-05-10T06:49:30;2.90;;;2.60;;
359;SDS011;168;48.872;9.226;2023-05-10T06:51:59;4.73;;;2.40;;
359;SDS011;168;48.872;9.226;2023-05-10T06:54:27;2.70;;;2.50;;
359;SDS011;168;48.872;9.226;2023-05-10T06:56:54;2.77;;;2.57;;
359;SDS011;168;48.872;9.226;2023-05-10T06:59:21;4.13;;;2.50;;
359;SDS011;168;48.872;9.226;2023-05-10T07:01:49;2.80;;;2.60;;
359;SDS011;168;48.872;9.226;2023-05-10T07:04:16;2.43;;;2.33;;
359;SDS011;168;48.872;9.226;2023-05-10T07:06:44;3.83;;;2.00;;
359;SDS011;168;48.872;9.226;2023-05-10T07:09:13;1.90;;;1.80;;
359;SDS011;168;48.872;9.226;2023-05-10T07:11:40;2.07;;;1.87;;
359;SDS011;168;48.872;9.226;2023-05-10T07:14:07;1.97;;;1.50;;
359;SDS011;168;48.872;9.226;2023-05-10T07:16:35;1.83;;;1.73;;
359;SDS011;168;48.872;9.226;2023-05-10T07:19:02;2.07;;;1.77;;
359;SDS011;168;48.872;9.226;2023-05-10T07:21:30;2.37;;;1.87;;
359;SDS011;168;48.872;9.226;2023-05-10T07:23:58;1.60;;;1.50;;
359;SDS011;168;48.872;9.226;2023-05-10T07:26:27;2.37;;;2.17;;
359;SDS011;168;48.872;9.226;2023-05-10T07:28:55;1.87;;;1.77;;
359;SDS011;168;48.872;9.226;2023-05-10T07:31:22;2.97;;;1.67;;
359;SDS011;168;48.872;9.226;2023-05-10T07:33:50;2.50;;;1.87;;
359;SDS011;168;48.872;9.226;2023-05-10T07:36:17;3.83;;;1.90;;
359;SDS011;168;48.872;9.226;2023-05-10T07:38:45;1.47;;;1.37;;
359;SDS011;168;48.872;9.226;2023-05-10T07:41:12;1.60;;;1.40;;
359;SDS011;168;48.872;9.226;2023-05-10T07:43:41;1.50;;;1.40;;
359;SDS011;168;48.872;9.226;2023-05-10T07:46:08;1.70;;;1.60;;
359;SDS011;168;48.872;9.226;2023-05-10T07:48:36;1.50;;;1.40;;
359;SDS011;168;48.872;9.226;2023-05-10T07:51:03;3.10;;;1.47;;
359;SDS011;168;48.872;9.226;2023-05-10T07:53:31;1.30;;;1.20;;
359;SDS011;168;48.872;9.226;2023-05-10T07:55:59;1.53;;;1.43;;
359;SDS011;168;48.872;9.226;2023-05-10T07:58:47;1.27;;;1.00;;
359;SDS011;168;48.872;9.226;2023-05-10T08:01:14;2.40;;;1.50;;
359;SDS011;168;48.872;9.226;2023-05-10T08:03:42;1.80;;;1.30;;
359;SDS011;168;48.872;9.226;2023-05-10T08:06:09;1.30;;;1.00;;
359;SDS011;168;48.872;9.226;2023-05-10T08:08:36;1.20;;;1.17;;
359;SDS011;168;48.872;9.226;2023-05-10T08:11:04;1.17;;;1.10;;
359;SDS011;168;48.872;9.226;2023-05-10T08:13:31;1.20;;;1.10;;
359;SDS011;168;48.872;9.226;2023-05-10T08:16:00;1.80;;;1.20;;
359;SDS011;168;48.872;9.226;2023-05-10T08:18:28;4.57;;;1.40;;
359;SDS011;168;48.872;9.226;2023-05-10T08:20:55;1.40;;;1.30;;
359;SDS011;168;48.872;9.226;2023-05-10T08:23:23;1.10;;;0.97;;
359;SDS011;168;48.872;9.226;2023-05-10T08:25:50;1.10;;;1.00;;
359;SDS011;168;48.872;9.226;2023-05-10T08:28:17;1.10;;;1.00;;
359;SDS011;168;48.872;9.226;2023-05-10T08:30:45;1.07;;;1.00;;
359;SDS011;168;48.872;9.226;2023-05-10T08:33:13;1.63;;;1.23;;
359;SDS011;168;48.872;9.226;2023-05-10T08:35:41;0.90;;;0.90;;
359;SDS011;168;48.872;9.226;2023-05-10T08:38:08;1.40;;;1.07;;
359;SDS011;168;48.872;9.226;2023-05-10T08:40:36;1.67;;;1.00;;
359;SDS011;168;48.872;9.226;2023-05-10T08:43:04;1.10;;;1.00;;
359;SDS011;168;48.872;9.226;2023-05-10T08:45:33;1.70;;;0.80;;
359;SDS011;168;48.872;9.226;2023-05-10T08:48:05;1.37;;;0.80;;
359;SDS011;168;48.872;9.226;2023-05-10T08:50:34;2.33;;;0.77;;
359;SDS011;168;48.872;9.226;2023-05-10T08:53:04;0.80;;;0.80;;
359;SDS011;168;48.872;9.226;2023-05-10T08:55:32;1.53;;;0.83;;
359;SDS011;168;48.872;9.226;2023-05-10T08:58:02;1.27;;;1.00;;
359;SDS011;168;48.872;9.226;2023-05-10T09:00:30;0.80;;;0.80;;
359;SDS011;168;48.872;9.226;2023-05-10T09:02:57;1.03;;;1.00;;
359;SDS011;168;48.872;9.226;2023-05-10T09:05:36;0.60;;;0.60;;
359;SDS011;168;48.872;9.226;2023-05-10T09:08:04;0.77;;;0.70;;
359;SDS011;168;48.872;9.226;2023-05-10T09:10:33;1.37;;;0.70;;
359;SDS011;168;48.872;9.226;2023-05-10T09:13:00;0.63;;;0.63;;
359;SDS011;168;48.872;9.226;2023-05-10T09:15:28;0.80;;;0.70;;
359;SDS011;168;48.872;9.226;2023-05-10T09:17:55;0.83;;;0.60;;
359;SDS011;168;48.872;9.226;2023-05-10T09:20:24;1.77;;;1.10;;
359;SDS011;168;48.872;9.226;2023-05-10T09:22:53;2.23;;;0.70;;
359;SDS011;168;48.872;9.226;2023-05-10T09:25:21;3.17;;;0.80;;
359;SDS011;168;48.872;9.226;2023-05-10T09:27:48;0.70;;;0.70;;
359;SDS011;168;48.872;9.226;2023-05-10T09:30:16;0.73;;;0.73;;
359;SDS011;168;48.872;9.226;2023-05-10T09:32:44;0.80;;;0.80;;
359;SDS011;168;48.872;9.226;2023-05-10T09:35:13;1.47;;;0.83;;
359;SDS011;168;48.872;9.226;2023-05-10T09:37:42;1.93;;;0.87;;
359;SDS011;168;48.872;9.226;2023-05-10T09:40:12;1.87;;;1.23;;
359;SDS011;168;48.872;9.226;2023-05-10T09:42:41;0.87;;;0.87;;
359;SDS011;168;48.872;9.226;2023-05-10T09:45:18;1.23;;;0.90;;
359;SDS011;168;48.872;9.226;2023-05-10T09:47:45;0.73;;;0.70;;
359;SDS011;168;48.872;9.226;2023-05-10T09:50:13;1.13;;;0.80;;
359;SDS011;168;48.872;9.226;2023-05-10T09:52:47;2.30;;;0.90;;
359;SDS011;168;48.872;9.226;2023-05-10T09:55:19;1.13;;;0.97;;
359;SDS011;168;48.872;9.226;2023-05-10T09:57:47;0.90;;;0.90;;
359;SDS011;168;48.872;9.226;2023-05-10T10:00:26;1.20;;;0.90;;
359;SDS011;168;48.872;9.226;2023-05-10T10:02:55;2.63;;;0.70;;
359;SDS011;168;48.872;9.226;2023-05-10T10:05:33;1.00;;;1.00;;
359;SDS011;168;48.872;9.226;2023-05-10T10:08:06;1.30;;;0.77;;
359;SDS011;168;48.872;9.226;2023-05-10T10:10:40;0.83;;;0.83;;
359;SDS011;168;48.872;9.226;2023-05-10T10:13:09;1.90;;;0.90;;
359;SDS011;168;48.872;9.226;2023-05-10T10:15:38;0.83;;;0.83;;
359;SDS011;168;48.872;9.226;2023-05-10T10:18:06;1.00;;;1.00;;
359;SDS011;168;48.872;9.226;2023-05-10T10:20:38;0.80;;;0.80;;
359;SDS011;168;48.872;9.226;2023-05-10T10:23:06;1.02;;;0.93;;
359;SDS011;168;48.872;9.226;2023-05-10T10:25:35;1.17;;;1.07;;
359;SDS011;168;48.872;9.226;2023-05-10T10:28:08;1.10;;;1.03;;
359;SDS011;168;48.872;9.226;2023-05-10T10:30:48;1.23;;;1.10;;
359;SDS011;168;48.872;9.226;2023-05-10T10:33:27;1.43;;;0.73;;
359;SDS011;168;48.872;9.226;2023-05-10T10:36:06;1.10;;;1.00;;
359;SDS011;168;48.872;9.226;2023-05-10T10:38:38;1.17;;;0.90;;
359;SDS011;168;48.872;9.226;2023-05-10T10:41:28;0.90;;;0.90;;
359;SDS011;168;48.872;9.226;2023-05-10T10:47:21;0.77;;;0.77;;
359;SDS011;168;48.872;9.226;2023-05-10T10:49:50;1.23;;;0.80;;
359;SDS011;168;48.872;9.226;2023-05-10T10:52:30;0.80;;;0.80;;
359;SDS011;168;48.872;9.226;2023-05-10T10:54:59;0.77;;;0.77;;
359;SDS011;168;48.872;9.226;2023-05-10T10:57:28;1.53;;;0.80;;
359;SDS011;168;48.872;9.226;2023-05-10T11:02:50;0.70;;;0.60;;
359;SDS011;168;48.872;9.226;2023-05-10T11:05:35;1.43;;;0.80;;
359;SDS011;168;48.872;9.226;2023-05-10T11:08:08;2.30;;;0.70;;
359;SDS011;168;48.872;9.226;2023-05-10T11:10:50;0.70;;;0.70;;
359;SDS011;168;48.872;9.226;2023-05-10T11:13:26;1.07;;;1.00;;
359;SDS011;168;48.872;9.226;2023-05-10T11:15:55;0.80;;;0.80;;
359;SDS011;168;48.872;9.226;2023-05-10T11:18:26;1.70;;;1.40;;
359;SDS011;168;48.872;9.226;2023-05-10T11:20:55;0.97;;;0.80;;
359;SDS011;168;48.872;9.226;2023-05-10T11:23:29;0.70;;;0.70;;
359;SDS011;168;48.872;9.226;2023-05-10T11:25:57;0.90;;;0.90;;
359;SDS011;168;48.872;9.226;2023-05-10T11:28:26;2.13;;;1.23;;
359;SDS011;168;48.872;9.226;2023-05-10T11:30:54;2.13;;;1.00;;
359;SDS011;168;48.872;9.226;2023-05-10T11:33:22;1.03;;;0.70;;
359;SDS011;168;48.872;9.226;2023-05-10T11:35:51;0.70;;;0.70;;
359;SDS011;168;48.872;9.226;2023-05-10T11:38:18;1.20;;;0.90;;
359;SDS011;168;48.872;9.226;2023-05-10T11:40:45;1.50;;;0.90;;
359;SDS011;168;48.872;9.226;2023-05-10T11:43:13;1.47;;;1.03;;
359;SDS011;168;48.872;9.226;2023-05-10T11:45:41;0.83;;;0.80;;
359;SDS011;168;48.872;9.226;2023-05-10T11:48:09;1.60;;;1.50;;
359;SDS011;168;48.872;9.226;2023-05-10T11:50:37;1.67;;;1.30;;
359;SDS011;168;48.872;9.226;2023-05-10T11:53:12;1.73;;;1.63;;
359;SDS011;168;48.872;9.226;2023-05-10T11:55:41;3.80;;;1.20;;
359;SDS011;168;48.872;9.226;2023-05-10T11:58:10;2.63;;;1.70;;
359;SDS011;168;48.872;9.226;2023-05-10T12:00:38;1.53;;;1.10;;
359;SDS011;168;48.872;9.226;2023-05-10T12:03:05;3.63;;;1.43;;
359;SDS011;168;48.872;9.226;2023-05-10T12:05:33;1.77;;;1.60;;
359;SDS011;168;48.872;9.226;2023-05-10T12:08:15;1.50;;;1.30;;
359;SDS011;168;48.872;9.226;2023-05-10T12:10:46;0.93;;;0.93;;
359;SDS011;168;48.872;9.226;2023-05-10T12:13:13;1.30;;;1.20;;
359;SDS011;168;48.872;9.226;2023-05-10T12:15:41;3.47;;;1.50;;
359;SDS011;168;48.872;9.226;2023-05-10T12:18:10;2.73;;;1.50;;
359;SDS011;168;48.872;9.226;2023-05-10T12:20:38;1.40;;;1.30;;
359;SDS011;168;48.872;9.226;2023-05-10T12:23:08;1.93;;;1.17;;
359;SDS011;168;48.872;9.226;2023-05-10T12:25:38;2.47;;;1.40;;
359;SDS011;168;48.872;9.226;2023-05-10T12:28:08;1.60;;;1.17;;
359;SDS011;168;48.872;9.226;2023-05-10T12:30:36;1.27;;;1.17;;
359;SDS011;168;48.872;9.226;2023-05-10T12:33:07;1.10;;;1.00;;
359;SDS011;168;48.872;9.226;2023-05-10T12:35:43;1.93;;;1.33;;
359;SDS011;168;48.872;9.226;2023-05-10T12:38:24;2.90;;;0.80;;
359;SDS011;168;48.872;9.226;2023-05-10T12:40:56;1.63;;;1.00;;
359;SDS011;168;48.872;9.226;2023-05-10T12:43:24;1.50;;;1.40;;
359;SDS011;168;48.872;9.226;2023-05-10T12:45:51;2.37;;;1.07;;
359;SDS011;168;48.872;9.226;2023-05-10T12:48:19;1.50;;;1.00;;
359;SDS011;168;48.872;9.226;2023-05-10T12:50:46;1.10;;;1.10;;
359;SDS011;168;48.872;9.226;2023-05-10T12:53:14;1.17;;;1.00;;
359;SDS011;168;48.872;9.226;2023-05-10T12:55:42;1.70;;;0.93;;
359;SDS011;168;48.872;9.226;2023-05-10T12:58:10;2.10;;;0.97;;
359;SDS011;168;48.872;9.226;2023-05-10T13:00:38;4.80;;;1.47;;
359;SDS011;168;48.872;9.226;2023-05-10T13:03:05;3.40;;;1.10;;
359;SDS011;168;48.872;9.226;2023-05-10T13:05:33;1.37;;;0.80;;
359;SDS011;168;48.872;9.226;2023-05-10T13:08:00;2.20;;;1.10;;
359;SDS011;168;48.872;9.226;2023-05-10T13:10:28;1.80;;;1.10;;
359;SDS011;168;48.872;9.226;2023-05-10T13:12:57;1.37;;;1.03;;
359;SDS011;168;48.872;9.226;2023-05-10T13:15:26;1.10;;;1.10;;
359;SDS011;168;48.872;9.226;2023-05-10T13:17:53;1.40;;;1.27;;
359;SDS011;168;48.872;9.226;2023-05-10T13:20:21;1.13;;;1.00;;
359;SDS011;168;48.872;9.226;2023-05-10T13:22:48;1.20;;;1.10;;
359;SDS011;168;48.872;9.226;2023-05-10T13:25:16;3.27;;;1.27;;
359;SDS011;168;48.872;9.226;2023-05-10T13:27:43;1.10;;;1.07;;
359;SDS011;168;48.872;9.226;2023-05-10T13:30:11;3.67;;;1.47;;
359;SDS011;168;48.872;9.226;2023-05-10T13:32:40;2.83;;;1.70;;
359;SDS011;168;48.872;9.226;2023-05-10T13:35:07;1.20;;;1.10;;
359;SDS011;168;48.872;9.226;2023-05-10T13:37:35;1.30;;;1.17;;
359;SDS011;168;48.872;9.226;2023-05-10T13:40:03;1.13;;;0.80;;
359;SDS011;168;48.872;9.226;2023-05-10T13:42:31;1.27;;;1.00;;
359;SDS011;168;48.872;9.226;2023-05-10T13:44:59;1.43;;;1.00;;
359;SDS011;168;48.872;9.226;2023-05-10T13:47:27;1.13;;;1.07;;
359;SDS011;168;48.872;9.226;2023-05-10T13:49:56;1.27;;;1.17;;
359;SDS011;168;48.872;9.226;2023-05-10T13:52:23;1.03;;;1.03;;
359;SDS011;168;48.872;9.226;2023-05-10T13:54:51;0.83;;;0.83;;
359;SDS011;168;48.872;9.226;2023-05-10T13:57:20;3.13;;;1.27;;
359;SDS011;168;48.872;9.226;2023-05-10T13:59:50;1.20;;;1.10;;
359;SDS011;168;48.872;9.226;2023-05-10T14:02:18;2.37;;;1.27;;
359;SDS011;168;48.872;9.226;2023-05-10T14:04:46;0.87;;;0.87;;
359;SDS011;168;48.872;9.226;2023-05-10T14:07:15;4.07;;;1.57;;
359;SDS011;168;48.872;9.226;2023-05-10T14:09:43;2.70;;;1.50;;
359;SDS011;168;48.872;9.226;2023-05-10T14:12:10;2.30;;;1.40;;
359;SDS011;168;48.872;9.226;2023-05-10T14:14:37;4.20;;;1.83;;
359;SDS011;168;48.872;9.226;2023-05-10T14:17:05;2.40;;;1.40;;
359;SDS011;168;48.872;9.226;2023-05-10T14:19:33;1.83;;;1.23;;
359;SDS011;168;48.872;9.226;2023-05-10T14:22:00;1.27;;;1.17;;
359;SDS011;168;48.872;9.226;2023-05-10T14:24:29;1.60;;;1.30;;
359;SDS011;168;48.872;9.226;2023-05-10T14:26:58;1.70;;;1.23;;
359;SDS011;168;48.872;9.226;2023-05-10T14:29:25;3.00;;;1.00;;
359;SDS011;168;48.872;9.226;2023-05-10T14:31:53;2.03;;;1.30;;
359;SDS011;168;48.872;9.226;2023-05-10T14:34:20;1.80;;;1.70;;
359;SDS011;168;48.872;9.226;2023-05-10T14:36:48;6.60;;;1.67;;
359;SDS011;168;48.872;9.226;2023-05-10T14:39:15;3.03;;;1.37;;
359;SDS011;168;48.872;9.226;2023-05-10T14:41:44;1.97;;;1.20;;
359;SDS011;168;48.872;9.226;2023-05-10T14:44:12;1.03;;;1.00;;
359;SDS011;168;48.872;9.226;2023-05-10T14:46:40;1.60;;;1.33;;
359;SDS011;168;48.872;9.226;2023-05-10T14:49:08;0.83;;;0.83;;
359;SDS011;168;48.872;9.226;2023-05-10T14:51:35;1.10;;;1.00;;
359;SDS011;168;48.872;9.226;2023-05-10T14:54:03;2.20;;;1.00;;
359;SDS011;168;48.872;9.226;2023-05-10T14:56:31;3.03;;;1.70;;
359;SDS011;168;48.872;9.226;2023-05-10T14:58:59;1.23;;;1.03;;
359;SDS011;168;48.872;9.226;2023-05-10T15:01:27;1.67;;;1.57;;
359;SDS011;168;48.872;9.226;2023-05-10T15:03:54;2.33;;;1.40;;
359;SDS011;168;48.872;9.226;2023-05-10T15:06:23;1.30;;;0.80;;
359;SDS011;168;48.872;9.226;2023-05-10T15:08:51;1.43;;;1.33;;
359;SDS011;168;48.872;9.226;2023-05-10T15:11:18;1.10;;;0.80;;
359;SDS011;168;48.872;9.226;2023-05-10T15:13:46;1.23;;;1.13;;
359;SDS011;168;48.872;9.226;2023-05-10T15:16:14;1.83;;;1.17;;
359;SDS011;168;48.872;9.226;2023-05-10T15:18:42;1.50;;;1.10;;
359;SDS011;168;48.872;9.226;2023-05-10T15:21:09;1.30;;;1.20;;
359;SDS011;168;48.872;9.226;2023-05-10T15:23:36;0.90;;;0.90;;
359;SDS011;168;48.872;9.226;2023-05-10T15:26:04;4.50;;;1.47;;
359;SDS011;168;48.872;9.226;2023-05-10T15:28:31;1.53;;;0.93;;
359;SDS011;168;48.872;9.226;2023-05-10T15:30:58;1.07;;;0.97;;
359;SDS011;168;48.872;9.226;2023-05-10T15:33:27;2.00;;;1.00;;
359;SDS011;168;48.872;9.226;2023-05-10T15:35:55;1.03;;;1.03;;
359;SDS011;168;48.872;9.226;2023-05-10T15:38:22;1.80;;;1.10;;
359;SDS011;168;48.872;9.226;2023-05-10T15:40:50;0.80;;;0.80;;
359;SDS011;168;48.872;9.226;2023-05-10T15:43:18;1.97;;;1.13;;
359;SDS011;168;48.872;9.226;2023-05-10T15:45:45;1.10;;;1.10;;
359;SDS011;168;48.872;9.226;2023-05-10T15:48:13;1.10;;;1.03;;
359;SDS011;168;48.872;9.226;2023-05-10T15:50:42;1.37;;;1.00;;
359;SDS011;168;48.872;9.226;2023-05-10T15:53:14;2.27;;;1.10;;
359;SDS011;168;48.872;9.226;2023-05-10T15:55:45;1.50;;;1.00;;
359;SDS011;168;48.872;9.226;2023-05-10T15:58:12;0.90;;;0.90;;
359;SDS011;168;48.872;9.226;2023-05-10T16:00:40;0.97;;;0.90;;
359;SDS011;168;48.872;9.226;2023-05-10T16:03:07;1.07;;;0.93;;
359;SDS011;168;48.872;9.226;2023-05-10T16:05:34;1.37;;;1.00;;
359;SDS011;168;48.872;9.226;2023-05-10T16:08:03;1.60;;;1.23;;
359;SDS011;168;48.872;9.226;2023-05-10T16:10:31;1.73;;;1.20;;